Pagina principală
METAR-TAF:

METAR-TAF

Aeroporturi :

Weipa, Australia

Latitudine: 12-40-43S, longitudine: 141-55-31E, elevație: 19 m

Observații meteo curente

Raportul a fost făcut în urmă cu 28 de minute, la 10:30 UTC
Vânt 8 kt de la Vest/Nord-vest
Temperatură 24°C
Umiditate 89%
Presiune 1009 hPa
Vizibilitate: 5000 m
Nori împrăștiați la o înălțime de 5100 picior
Nori fragmentați la o înălțime de 7000 picior
Nori fragmentați la o înălțime de 10000 picior
averse de ploaie puternică

METAR: YBWP 301030Z AUTO 29008KT 5000 +SHRA SCT051 BKN070 BKN100 24/22 Q1009 RETS

Ora: 20:58 (10:58 UTC)


TAF: lipsă

Observații și prognoze meteo pentru peste 4.000 de aeroporturi (rapoarte METAR și TAF).

Stațiile disponibile sunt reprezentate pe hartă prin puncte galbene și roșii.

Țineți indicatorul mouse-ului pe punctul dorit pentru a vedea denumirea stației.

Apoi, faceți clic pentru a vedea observațiile și prognozele meteorologice.

Pentru a schimba harta: Pentru mărire, faceți clic pe butoanele verzi cu cruce neagră; pentru micșorare, pe butonul verde cu o liniuță; pentru hărți învecinate, pe săgețile verzi.


METAR-TAF: